Time;durP1;ratioP1;P1;durP2;ratioP2;P2;SDS_P1;SDS_P2;PMS_P1;PMS_P2;Temp;Humidity;BMP_temperature;BMP_pressure;BME280_temperature;BME280_humidity;BME280_pressure;Samples;Min_cycle;Max_cycle;Signal;HPM_P1;HPM_P2
2023/05/17 00:00:09;;;;;;;21.52;3.53;;;7.30;99.90;;;;;;5093333;28;20164;-71
2023/05/17 00:02:35;;;;;;;18.98;3.03;;;7.30;99.90;;;;;;5076200;28;20036;-71
2023/05/17 00:05:02;;;;;;;14.48;3.10;;;7.20;99.90;;;;;;5093695;28;20082;-71
2023/05/17 00:07:27;;;;;;;18.27;2.80;;;7.10;99.90;;;;;;5076995;28;20039;-71
2023/05/17 00:09:53;;;;;;;18.83;3.53;;;7.00;99.90;;;;;;5077358;28;20542;-71
2023/05/17 00:12:19;;;;;;;17.43;2.77;;;7.00;99.90;;;;;;5094215;28;20034;-71
2023/05/17 00:14:45;;;;;;;17.97;3.27;;;7.00;99.90;;;;;;5064383;28;20047;-71
2023/05/17 00:17:10;;;;;;;21.33;3.43;;;7.00;99.90;;;;;;5093136;28;20496;-71
2023/05/17 00:19:36;;;;;;;20.00;3.07;;;7.00;99.90;;;;;;5093620;28;20043;-71
2023/05/17 00:22:02;;;;;;;13.37;3.00;;;7.00;99.90;;;;;;5087243;28;20074;-72
2023/05/17 00:24:27;;;;;;;21.03;2.77;;;6.90;99.90;;;;;;5076589;28;20737;-72
2023/05/17 00:26:53;;;;;;;15.87;2.57;;;6.80;99.90;;;;;;5072854;28;20568;-71
2023/05/17 00:29:19;;;;;;;21.27;2.83;;;6.70;99.90;;;;;;5090201;28;20075;-71
2023/05/17 00:31:45;;;;;;;15.57;3.10;;;6.60;99.90;;;;;;5089950;28;20055;-71
2023/05/17 00:34:10;;;;;;;17.87;2.83;;;6.50;99.90;;;;;;5089107;28;20044;-71
2023/05/17 00:36:36;;;;;;;19.37;2.77;;;6.40;99.90;;;;;;5086990;28;20032;-71
2023/05/17 00:39:02;;;;;;;14.00;2.63;;;6.30;99.90;;;;;;5089788;28;20541;-71
2023/05/17 00:41:28;;;;;;;18.60;3.42;;;6.20;99.90;;;;;;5072010;28;20085;-71
2023/05/17 00:43:53;;;;;;;19.33;3.80;;;6.20;99.90;;;;;;5071934;28;20036;-71
2023/05/17 00:46:19;;;;;;;17.37;3.27;;;6.10;99.90;;;;;;5089050;28;20332;-71
2023/05/17 00:48:45;;;;;;;23.93;3.40;;;6.10;99.90;;;;;;5072542;28;20119;-71
2023/05/17 00:51:12;;;;;;;14.53;2.73;;;6.10;99.90;;;;;;5089369;28;20047;-71
2023/05/17 00:53:38;;;;;;;22.50;2.90;;;6.10;99.90;;;;;;5089127;28;20048;-71
2023/05/17 00:56:04;;;;;;;18.20;2.80;;;6.10;99.90;;;;;;5089634;28;20036;-71
2023/05/17 00:58:30;;;;;;;11.32;2.60;;;6.10;99.90;;;;;;5072339;28;20028;-71
2023/05/17 01:00:56;;;;;;;18.30;3.00;;;6.10;99.90;;;;;;5089266;28;20317;-71
2023/05/17 01:03:22;;;;;;;16.27;3.83;;;6.00;99.90;;;;;;5088849;28;20044;-71
2023/05/17 01:05:49;;;;;;;17.27;2.90;;;6.00;99.90;;;;;;5089075;28;20082;-71
2023/05/17 01:08:15;;;;;;;20.95;2.95;;;6.00;99.90;;;;;;5089353;28;20684;-71
2023/05/17 01:10:57;;;;;;;20.37;2.43;;;5.90;99.90;;;;;;5072335;28;20044;-71
2023/05/17 01:13:47;;;;;;;20.77;3.25;;;5.90;99.90;;;;;;5088599;28;20059;-71
2023/05/17 01:16:29;;;;;;;19.80;3.40;;;5.90;99.90;;;;;;5072070;28;20503;-71
2023/05/17 01:19:30;;;;;;;21.85;2.80;;;5.90;99.90;;;;;;5089330;28;20535;-72
2023/05/17 01:22:01;;;;;;;19.23;2.78;;;5.90;99.90;;;;;;5077267;28;20498;-71
2023/05/17 01:24:56;;;;;;;26.50;3.45;;;5.90;99.90;;;;;;5071508;28;20048;-71
2023/05/17 01:27:24;;;;;;;17.70;2.63;;;5.90;99.90;;;;;;5073350;28;20150;-71
2023/05/17 01:29:53;;;;;;;12.70;2.25;;;5.90;99.90;;;;;;5072108;28;20484;-71
2023/05/17 01:32:20;;;;;;;17.95;2.58;;;6.00;99.90;;;;;;5088156;28;20055;-71
2023/05/17 01:34:45;;;;;;;19.55;3.28;;;6.00;99.90;;;;;;5088288;28;20040;-71
2023/05/17 01:37:11;;;;;;;16.93;2.20;;;6.00;99.90;;;;;;5080729;28;20550;-71
2023/05/17 01:39:37;;;;;;;20.37;3.43;;;6.00;99.90;;;;;;5071472;28;20036;-71
2023/05/17 01:42:21;;;;;;;24.27;2.87;;;6.10;99.90;;;;;;5071000;28;20080;-71
2023/05/17 01:45:09;;;;;;;16.38;2.50;;;6.20;99.90;;;;;;5088102;28;20040;-71
2023/05/17 01:47:58;;;;;;;16.25;2.70;;;6.20;99.90;;;;;;5083002;28;20408;-71
2023/05/17 01:50:27;;;;;;;17.15;2.83;;;6.30;99.90;;;;;;5071207;28;20104;-71
2023/05/17 01:52:59;;;;;;;19.17;2.92;;;6.30;99.90;;;;;;5070563;28;20075;-71
2023/05/17 01:55:42;;;;;;;16.13;2.60;;;6.30;99.90;;;;;;5068304;28;20044;-72
2023/05/17 01:58:11;;;;;;;20.65;2.80;;;6.40;99.90;;;;;;5087753;28;20032;-71
2023/05/17 02:00:39;;;;;;;20.33;2.55;;;6.50;99.90;;;;;;5070165;28;20040;-71
2023/05/17 02:03:05;;;;;;;16.27;2.33;;;6.60;99.90;;;;;;5087377;28;20044;-71
2023/05/17 02:05:30;;;;;;;15.23;2.42;;;6.70;99.90;;;;;;5087978;28;20036;-71
2023/05/17 02:07:56;;;;;;;21.30;2.80;;;6.70;99.90;;;;;;5085931;28;20469;-71
2023/05/17 02:10:22;;;;;;;14.73;2.33;;;6.80;99.90;;;;;;5070663;28;20044;-71
2023/05/17 02:12:47;;;;;;;15.53;2.53;;;6.80;99.90;;;;;;5087135;28;20040;-71
2023/05/17 02:15:15;;;;;;;21.70;2.97;;;6.80;99.90;;;;;;5087787;28;20232;-71
2023/05/17 02:17:41;;;;;;;15.65;2.50;;;6.80;99.90;;;;;;5071740;28;20047;-71
2023/05/17 02:20:07;;;;;;;19.93;3.03;;;6.80;99.90;;;;;;5071118;28;20040;-71
2023/05/17 02:22:33;;;;;;;13.85;2.58;;;6.70;99.90;;;;;;5087570;28;20131;-71
2023/05/17 02:24:59;;;;;;;12.88;2.30;;;6.60;99.90;;;;;;5087443;28;20449;-71
2023/05/17 02:27:25;;;;;;;18.57;2.63;;;6.50;99.90;;;;;;5087689;28;20083;-71
2023/05/17 02:29:50;;;;;;;18.83;2.77;;;6.50;99.90;;;;;;5087882;28;20105;-71
2023/05/17 02:32:16;;;;;;;9.10;2.73;;;6.40;99.90;;;;;;5087649;28;20093;-71
2023/05/17 02:34:42;;;;;;;15.80;1.80;;;6.40;99.90;;;;;;5070585;28;20040;-71
2023/05/17 02:37:07;;;;;;;18.07;2.43;;;6.40;99.90;;;;;;5084612;28;20445;-71
2023/05/17 02:39:33;;;;;;;11.30;1.97;;;6.30;99.90;;;;;;5087656;28;20040;-71
2023/05/17 02:41:59;;;;;;;13.70;2.10;;;6.30;99.90;;;;;;5067090;28;20033;-71
2023/05/17 02:44:24;;;;;;;15.97;2.03;;;6.20;99.90;;;;;;5079629;28;20040;-71
2023/05/17 02:46:50;;;;;;;12.70;2.40;;;6.20;99.90;;;;;;5070387;28;20051;-71
2023/05/17 02:49:16;;;;;;;13.77;1.83;;;6.20;99.90;;;;;;5087553;28;20084;-71
2023/05/17 02:51:41;;;;;;;11.97;2.27;;;6.10;99.90;;;;;;5087106;28;20077;-71
2023/05/17 02:54:07;;;;;;;12.40;1.80;;;6.10;99.90;;;;;;5083445;28;20059;-71
2023/05/17 02:56:33;;;;;;;16.80;2.70;;;6.00;99.90;;;;;;5085923;28;20040;-71
2023/05/17 02:59:00;;;;;;;11.30;1.30;;;6.00;99.90;;;;;;5086705;28;20039;-71
2023/05/17 03:01:26;;;;;;;12.73;1.90;;;6.00;99.90;;;;;;5086833;28;20403;-71
2023/05/17 03:03:52;;;;;;;12.05;1.73;;;5.90;99.90;;;;;;5072302;28;20055;-71
2023/05/17 03:06:18;;;;;;;12.23;2.00;;;5.90;99.90;;;;;;5088847;28;20040;-71
2023/05/17 03:08:43;;;;;;;15.53;2.50;;;5.90;99.90;;;;;;5091325;28;20507;-71
2023/05/17 03:11:09;;;;;;;11.93;1.43;;;5.90;99.90;;;;;;5074480;28;20040;-71
2023/05/17 03:13:35;;;;;;;11.33;2.37;;;6.00;99.90;;;;;;5090937;28;20102;-71
2023/05/17 03:16:01;;;;;;;10.97;1.60;;;6.00;99.90;;;;;;5074242;28;20039;-71
2023/05/17 03:18:27;;;;;;;12.45;1.45;;;6.00;99.90;;;;;;5083183;28;20036;-71
2023/05/17 03:20:52;;;;;;;12.70;1.70;;;6.00;99.90;;;;;;5090133;28;20101;-71
2023/05/17 03:23:18;;;;;;;11.27;1.67;;;6.00;99.90;;;;;;5091166;28;20469;-71
2023/05/17 03:25:44;;;;;;;10.67;1.60;;;6.00;99.90;;;;;;5073455;28;20119;-71
2023/05/17 03:28:09;;;;;;;9.07;1.27;;;6.00;99.90;;;;;;5090884;28;20075;-71
2023/05/17 03:30:35;;;;;;;11.43;2.47;;;6.00;99.90;;;;;;5090177;28;20500;-71
2023/05/17 03:33:01;;;;;;;14.63;1.93;;;6.00;99.90;;;;;;5090625;28;20063;-71
2023/05/17 03:35:27;;;;;;;14.00;2.23;;;6.00;99.90;;;;;;5073221;28;20043;-71
2023/05/17 03:37:52;;;;;;;9.50;1.70;;;6.00;99.90;;;;;;5073066;28;20042;-71
2023/05/17 03:40:18;;;;;;;16.33;1.83;;;6.00;99.90;;;;;;5089991;28;20036;-71
2023/05/17 03:42:44;;;;;;;11.07;2.03;;;6.00;99.90;;;;;;5080824;28;20032;-72
2023/05/17 03:45:11;;;;;;;16.60;1.98;;;6.10;99.90;;;;;;5090110;28;20035;-71
2023/05/17 03:47:37;;;;;;;12.82;2.17;;;6.10;99.90;;;;;;5074018;28;20494;-71
2023/05/17 03:50:04;;;;;;;18.33;2.20;;;6.20;99.90;;;;;;5089976;28;20048;-72
2023/05/17 03:52:29;;;;;;;10.80;1.70;;;6.30;99.90;;;;;;5090650;28;20040;-72
2023/05/17 03:54:55;;;;;;;14.57;1.67;;;6.40;99.90;;;;;;5073242;28;20040;-72
2023/05/17 03:57:21;;;;;;;12.17;2.13;;;6.50;99.90;;;;;;5073980;28;20069;-70
2023/05/17 03:59:46;;;;;;;14.40;2.57;;;6.60;99.90;;;;;;5090330;28;20028;-70
2023/05/17 04:02:15;;;;;;;6.90;1.10;;;6.70;99.90;;;;;;5073168;28;20381;-70
2023/05/17 04:04:41;;;;;;;10.15;1.30;;;6.80;99.90;;;;;;5090113;28;20397;-70
2023/05/17 04:07:07;;;;;;;9.65;1.42;;;6.90;99.90;;;;;;5073469;28;20040;-70
2023/05/17 04:09:33;;;;;;;11.67;1.70;;;6.90;99.90;;;;;;5089749;28;20093;-70
2023/05/17 04:11:59;;;;;;;13.52;1.55;;;7.00;99.90;;;;;;5073438;28;20075;-70
2023/05/17 04:14:25;;;;;;;8.75;1.50;;;7.00;99.90;;;;;;5072900;28;20075;-71
2023/05/17 04:16:51;;;;;;;11.27;1.40;;;7.10;99.90;;;;;;5073331;28;20524;-72
2023/05/17 04:19:17;;;;;;;12.97;1.60;;;7.10;99.90;;;;;;5073097;28;20119;-72
2023/05/17 04:21:43;;;;;;;11.07;2.00;;;7.10;99.90;;;;;;5090094;28;20028;-72
2023/05/17 04:24:09;;;;;;;9.95;1.73;;;7.10;99.90;;;;;;5073377;28;20076;-72
2023/05/17 04:26:35;;;;;;;8.70;1.10;;;7.20;99.90;;;;;;5089305;28;20530;-71
2023/05/17 04:29:01;;;;;;;11.70;1.52;;;7.20;99.90;;;;;;5089553;28;20047;-71
2023/05/17 04:31:26;;;;;;;10.57;1.07;;;7.30;99.90;;;;;;5073039;28;20052;-71
2023/05/17 04:33:52;;;;;;;7.80;0.90;;;7.30;99.90;;;;;;5089526;28;20055;-71
2023/05/17 04:36:18;;;;;;;11.60;1.80;;;7.40;99.90;;;;;;5085358;28;20082;-71
2023/05/17 04:38:43;;;;;;;7.00;0.80;;;7.40;99.90;;;;;;5071800;28;20128;-71
2023/05/17 04:41:10;;;;;;;9.13;1.40;;;7.30;99.90;;;;;;5068721;28;20036;-71
2023/05/17 04:43:35;;;;;;;13.50;1.55;;;7.30;98.50;;;;;;5078056;28;20036;-71
2023/05/17 04:46:01;;;;;;;5.60;0.63;;;7.30;98.40;;;;;;5072181;28;20044;-71
2023/05/17 04:48:30;;;;;;;10.03;1.00;;;7.30;98.40;;;;;;5088567;28;20044;-71
2023/05/17 04:51:06;;;;;;;8.88;1.20;;;7.20;98.80;;;;;;5072314;28;20044;-71
2023/05/17 04:53:31;;;;;;;9.00;0.75;;;7.20;99.30;;;;;;5088748;28;20050;-71
2023/05/17 04:55:58;;;;;;;7.60;1.20;;;7.20;99.40;;;;;;5087349;28;20048;-71
2023/05/17 04:58:24;;;;;;;7.55;0.95;;;7.30;98.80;;;;;;5088699;28;20028;-71
2023/05/17 05:00:50;;;;;;;7.00;0.80;;;7.30;99.20;;;;;;5068301;28;20054;-71
2023/05/17 05:03:17;;;;;;;6.65;1.02;;;7.40;98.80;;;;;;5071173;28;20093;-71
2023/05/17 05:05:42;;;;;;;12.82;1.45;;;7.50;99.00;;;;;;5069297;28;20047;-71
2023/05/17 05:08:10;;;;;;;9.47;1.20;;;7.60;98.30;;;;;;5087162;28;20028;-72
2023/05/17 05:10:36;;;;;;;9.93;1.30;;;7.70;97.10;;;;;;5072478;28;20075;-72
2023/05/17 05:13:01;;;;;;;9.33;1.40;;;7.80;97.50;;;;;;5072403;28;20535;-72
2023/05/17 05:15:27;;;;;;;8.60;1.20;;;7.80;96.90;;;;;;5071915;28;20123;-72
2023/05/17 05:17:53;;;;;;;7.33;1.80;;;8.00;97.00;;;;;;5072238;28;20040;-71
2023/05/17 05:20:18;;;;;;;9.10;1.43;;;8.00;96.60;;;;;;5089704;28;20078;-71
2023/05/17 05:22:44;;;;;;;9.53;1.20;;;8.00;96.50;;;;;;5081835;28;20131;-71
2023/05/17 05:25:10;;;;;;;14.97;1.53;;;8.10;97.20;;;;;;5086712;28;20039;-71
2023/05/17 05:27:36;;;;;;;10.27;1.70;;;8.20;96.50;;;;;;5051345;28;20079;-71
2023/05/17 05:30:02;;;;;;;8.90;1.67;;;8.20;96.10;;;;;;5066880;28;20051;-71
2023/05/17 05:32:27;;;;;;;9.43;1.10;;;8.30;96.70;;;;;;5051127;28;20054;-71
2023/05/17 05:34:53;;;;;;;9.33;0.97;;;8.40;96.30;;;;;;5051369;28;20306;-71
2023/05/17 05:37:19;;;;;;;14.17;1.27;;;8.70;97.10;;;;;;5068894;28;20488;-71
2023/05/17 05:39:45;;;;;;;10.50;1.67;;;9.00;95.50;;;;;;5050894;28;20445;-71
2023/05/17 05:42:11;;;;;;;7.65;1.20;;;9.00;94.60;;;;;;5051623;28;20365;-71
2023/05/17 05:44:37;;;;;;;7.00;1.30;;;9.00;94.80;;;;;;5053769;28;20119;-70
2023/05/17 05:47:03;;;;;;;9.23;2.37;;;9.00;93.80;;;;;;5067206;28;20048;-71
2023/05/17 05:49:28;;;;;;;6.80;0.80;;;9.00;93.70;;;;;;5067768;28;20073;-71
2023/05/17 05:51:54;;;;;;;10.50;1.40;;;9.00;93.40;;;;;;5050094;28;20075;-71
2023/05/17 05:54:20;;;;;;;10.40;1.83;;;9.00;93.40;;;;;;5057141;28;20383;-71
2023/05/17 05:56:46;;;;;;;7.80;1.63;;;9.00;94.10;;;;;;5050951;28;20040;-71
2023/05/17 05:59:11;;;;;;;9.77;1.33;;;9.00;93.90;;;;;;5050971;28;20540;-71
2023/05/17 06:01:37;;;;;;;11.23;1.60;;;9.00;94.20;;;;;;5051103;28;20098;-71
2023/05/17 06:04:03;;;;;;;9.80;1.23;;;8.90;92.80;;;;;;5067230;28;20044;-73
2023/05/17 06:06:30;;;;;;;10.10;1.27;;;8.90;93.70;;;;;;5050455;28;20060;-72
2023/05/17 06:08:55;;;;;;;9.82;1.40;;;9.00;94.50;;;;;;5072359;28;20051;-72
2023/05/17 06:11:22;;;;;;;18.60;2.03;;;9.10;94.40;;;;;;5071956;28;20040;-72
2023/05/17 06:13:48;;;;;;;14.73;3.08;;;9.40;93.40;;;;;;5056126;28;20040;-72
2023/05/17 06:16:14;;;;;;;21.10;3.20;;;9.90;91.80;;;;;;5067615;28;20516;-72
2023/05/17 06:18:40;;;;;;;11.73;2.23;;;10.60;90.30;;;;;;5050935;28;20043;-72
2023/05/17 06:21:05;;;;;;;10.77;2.03;;;11.00;84.70;;;;;;5065749;28;20047;-72
2023/05/17 06:23:31;;;;;;;13.27;3.00;;;11.10;83.10;;;;;;5067805;28;20054;-72
2023/05/17 06:25:57;;;;;;;15.73;1.80;;;11.10;80.40;;;;;;5075655;28;20052;-72
2023/05/17 06:28:22;;;;;;;13.57;2.27;;;11.10;77.30;;;;;;5091024;28;20531;-72
2023/05/17 06:30:48;;;;;;;16.67;2.03;;;11.10;77.40;;;;;;5083404;28;20063;-72
2023/05/17 06:33:14;;;;;;;11.60;2.07;;;10.90;76.80;;;;;;5075470;28;20050;-72
2023/05/17 06:35:39;;;;;;;15.90;2.27;;;10.80;77.40;;;;;;5098350;27;20514;-73
2023/05/17 06:38:05;;;;;;;15.67;1.77;;;10.70;78.70;;;;;;5092051;28;20069;-72
2023/05/17 06:40:31;;;;;;;15.80;2.13;;;10.70;79.00;;;;;;5092476;28;20035;-72
2023/05/17 06:42:57;;;;;;;11.83;1.87;;;10.70;77.80;;;;;;5097944;28;20032;-72
2023/05/17 06:45:23;;;;;;;8.07;1.77;;;10.60;76.90;;;;;;5075508;28;20438;-73
2023/05/17 06:47:48;;;;;;;15.10;1.90;;;10.60;77.50;;;;;;5092107;28;20084;-73
2023/05/17 06:50:14;;;;;;;11.47;2.17;;;10.60;79.50;;;;;;5092955;28;20604;-72
2023/05/17 06:52:40;;;;;;;14.05;2.20;;;10.60;79.90;;;;;;5081298;28;20467;-73
2023/05/17 06:55:06;;;;;;;12.73;1.80;;;10.60;78.30;;;;;;5076259;28;20057;-72
2023/05/17 06:57:32;;;;;;;11.73;1.95;;;10.60;79.10;;;;;;5088481;28;20036;-72
2023/05/17 06:59:58;;;;;;;19.43;2.53;;;10.70;76.50;;;;;;5090937;28;20559;-71
2023/05/17 07:02:23;;;;;;;8.30;1.27;;;10.70;75.10;;;;;;5090126;28;20036;-73
2023/05/17 07:04:49;;;;;;;10.47;1.70;;;10.80;74.60;;;;;;5090886;28;20031;-73
2023/05/17 07:07:15;;;;;;;9.37;1.90;;;10.90;73.70;;;;;;5093516;28;20051;-72
2023/05/17 07:09:41;;;;;;;10.07;1.40;;;10.90;73.10;;;;;;5093135;28;20031;-73
2023/05/17 07:12:06;;;;;;;11.03;1.67;;;10.90;71.40;;;;;;5092964;28;20050;-72
2023/05/17 07:14:32;;;;;;;14.63;2.07;;;11.10;72.30;;;;;;5073670;28;20598;-73
2023/05/17 07:16:59;;;;;;;10.33;1.53;;;11.20;70.50;;;;;;5091702;28;20039;-72
2023/05/17 07:19:27;;;;;;;9.57;1.45;;;11.20;71.20;;;;;;5090371;28;20040;-73
2023/05/17 07:21:53;;;;;;;9.15;1.50;;;11.30;70.40;;;;;;5078642;28;20036;-73
2023/05/17 07:24:19;;;;;;;12.03;1.70;;;11.30;70.50;;;;;;5092168;28;20039;-72
2023/05/17 07:26:44;;;;;;;17.40;2.10;;;11.30;66.90;;;;;;5088463;28;20109;-73
2023/05/17 07:29:11;;;;;;;9.77;1.77;;;11.30;66.70;;;;;;5069309;28;20814;-73
2023/05/17 07:31:37;;;;;;;15.52;1.80;;;11.40;67.40;;;;;;5065004;28;20043;-73
2023/05/17 07:34:03;;;;;;;10.40;1.57;;;11.50;68.80;;;;;;5071873;28;20043;-72
2023/05/17 07:36:29;;;;;;;8.65;2.30;;;11.60;68.50;;;;;;5088427;28;20038;-73
2023/05/17 07:38:56;;;;;;;11.73;1.90;;;11.80;68.30;;;;;;5087850;28;20443;-72
2023/05/17 07:41:22;;;;;;;10.87;1.63;;;11.90;65.30;;;;;;5071529;28;20546;-73
2023/05/17 07:43:48;;;;;;;13.07;1.47;;;12.00;63.60;;;;;;5089095;28;20282;-72
2023/05/17 07:46:14;;;;;;;9.10;1.57;;;11.90;60.80;;;;;;5086613;28;20040;-72
2023/05/17 07:48:40;;;;;;;10.83;1.73;;;12.10;63.70;;;;;;5072561;28;20968;-73
2023/05/17 07:51:05;;;;;;;12.50;1.90;;;12.30;63.30;;;;;;5075700;28;20185;-72
2023/05/17 07:53:31;;;;;;;12.50;2.13;;;12.50;61.60;;;;;;5076266;28;20130;-73
2023/05/17 07:55:57;;;;;;;12.27;1.97;;;12.50;60.20;;;;;;5092548;28;20499;-73
2023/05/17 07:58:23;;;;;;;11.40;1.40;;;12.40;60.50;;;;;;5074650;28;20445;-73
2023/05/17 08:00:49;;;;;;;13.60;2.07;;;12.20;59.20;;;;;;5075041;28;20096;-72
2023/05/17 08:03:14;;;;;;;12.27;1.73;;;12.10;60.80;;;;;;5091362;28;20484;-73
2023/05/17 08:05:40;;;;;;;14.37;1.90;;;12.10;60.20;;;;;;5091977;28;20032;-73
2023/05/17 08:08:06;;;;;;;11.60;1.63;;;12.10;60.80;;;;;;5074802;28;20042;-73
2023/05/17 08:10:35;;;;;;;6.83;1.50;;;12.10;60.50;;;;;;5075595;28;20124;-73
2023/05/17 08:13:00;;;;;;;13.17;2.17;;;12.20;59.60;;;;;;5074946;28;20067;-73
2023/05/17 08:15:26;;;;;;;10.90;2.10;;;12.10;59.10;;;;;;5094298;28;20775;-72
2023/05/17 08:17:52;;;;;;;13.17;1.63;;;12.10;60.80;;;;;;5096634;28;20036;-73
2023/05/17 08:20:17;;;;;;;13.23;1.60;;;12.10;60.50;;;;;;5092328;28;20047;-72
2023/05/17 08:22:43;;;;;;;11.33;1.73;;;12.10;60.40;;;;;;5091519;28;20069;-72
2023/05/17 08:25:09;;;;;;;9.23;2.17;;;12.20;61.50;;;;;;5073683;28;20119;-73
2023/05/17 08:27:35;;;;;;;11.97;2.10;;;12.20;60.90;;;;;;5090822;28;20051;-73
2023/05/17 08:30:01;;;;;;;11.20;1.97;;;12.20;61.20;;;;;;5070734;28;20044;-73
2023/05/17 08:32:27;;;;;;;13.80;1.83;;;12.20;61.70;;;;;;5089423;28;20189;-72
2023/05/17 08:34:53;;;;;;;15.93;1.90;;;12.30;61.70;;;;;;5074138;28;20086;-72
2023/05/17 08:37:19;;;;;;;12.13;2.07;;;12.20;62.40;;;;;;5089569;28;20297;-72
2023/05/17 08:39:45;;;;;;;10.07;1.90;;;12.20;63.70;;;;;;5090849;28;20281;-73
2023/05/17 08:42:11;;;;;;;13.50;1.77;;;12.10;64.70;;;;;;5072327;28;20043;-72
2023/05/17 08:44:38;;;;;;;10.03;1.80;;;12.10;64.00;;;;;;5090624;28;20492;-73
2023/05/17 08:47:05;;;;;;;13.40;1.93;;;12.00;65.00;;;;;;5091572;28;20366;-73
2023/05/17 08:49:33;;;;;;;14.83;2.90;;;11.90;64.50;;;;;;5091709;28;20738;-73
2023/05/17 08:52:00;;;;;;;13.83;2.10;;;11.80;65.50;;;;;;5076054;28;20329;-72
2023/05/17 08:54:26;;;;;;;11.90;2.30;;;11.80;66.00;;;;;;5091337;28;20326;-73
2023/05/17 08:56:58;;;;;;;12.63;1.67;;;11.80;65.70;;;;;;5091508;28;20289;-73
2023/05/17 08:59:26;;;;;;;14.97;1.90;;;11.90;65.90;;;;;;5087642;28;20278;-73
2023/05/17 09:01:53;;;;;;;13.40;2.03;;;12.10;65.40;;;;;;5078175;28;20284;-72
2023/05/17 09:04:20;;;;;;;20.67;2.57;;;12.40;64.00;;;;;;5073431;28;20290;-73
2023/05/17 09:06:46;;;;;;;13.30;2.03;;;12.50;64.40;;;;;;5090404;28;20285;-73
2023/05/17 09:09:12;;;;;;;11.63;1.83;;;12.60;64.70;;;;;;5088934;28;20794;-72
2023/05/17 09:11:38;;;;;;;12.93;1.97;;;12.60;64.80;;;;;;5071308;28;20032;-72
2023/05/17 09:14:05;;;;;;;13.60;2.67;;;12.60;64.40;;;;;;5088830;28;20321;-72
2023/05/17 09:16:34;;;;;;;15.43;2.10;;;12.60;64.40;;;;;;5071960;28;20282;-72
2023/05/17 09:19:00;;;;;;;10.50;2.00;;;12.60;63.90;;;;;;5077538;28;20775;-72
2023/05/17 09:21:27;;;;;;;13.40;2.47;;;12.70;63.80;;;;;;5071830;28;20312;-72
2023/05/17 09:23:54;;;;;;;8.07;1.67;;;12.80;61.40;;;;;;5072032;28;20825;-72
2023/05/17 09:26:23;;;;;;;11.10;1.90;;;12.80;60.10;;;;;;5088576;28;20290;-72
2023/05/17 09:28:52;;;;;;;8.83;1.40;;;13.00;58.80;;;;;;5071616;28;20286;-72
2023/05/17 09:31:18;;;;;;;10.50;1.53;;;13.10;59.00;;;;;;5079662;28;20289;-72
2023/05/17 09:33:48;;;;;;;13.03;1.93;;;13.40;58.20;;;;;;5087638;28;20806;-72
2023/05/17 09:36:21;;;;;;;9.73;2.20;;;13.60;56.90;;;;;;5088391;28;20485;-72
2023/05/17 09:39:04;;;;;;;8.83;1.63;;;13.60;55.60;;;;;;5070893;28;20285;-72
2023/05/17 09:41:31;;;;;;;9.97;2.07;;;13.40;53.80;;;;;;5066663;28;20415;-71
2023/05/17 09:44:01;;;;;;;7.90;1.60;;;13.40;56.00;;;;;;5074143;28;20289;-71
2023/05/17 09:46:32;;;;;;;9.97;1.40;;;13.50;55.50;;;;;;5070755;28;20281;-71
2023/05/17 09:48:59;;;;;;;12.20;1.83;;;13.50;54.10;;;;;;5087657;28;20792;-71
2023/05/17 09:51:36;;;;;;;9.97;1.53;;;13.50;54.60;;;;;;5089405;28;20282;-72
2023/05/17 09:54:01;;;;;;;8.60;1.90;;;13.40;54.70;;;;;;5089139;28;20875;-72
2023/05/17 09:56:30;;;;;;;7.57;1.10;;;13.30;53.40;;;;;;5070580;28;20310;-71
2023/05/17 09:58:59;;;;;;;7.13;1.60;;;13.20;52.30;;;;;;5070877;28;20070;-72
2023/05/17 10:01:27;;;;;;;7.73;1.10;;;13.20;52.10;;;;;;5092449;28;20276;-71
2023/05/17 10:03:53;;;;;;;7.20;1.17;;;13.30;52.20;;;;;;5088112;28;20294;-71
2023/05/17 10:06:22;;;;;;;10.07;1.17;;;13.30;52.50;;;;;;5070882;28;20286;-71
2023/05/17 10:08:55;;;;;;;8.10;1.27;;;13.20;50.40;;;;;;5088181;28;20607;-71
2023/05/17 10:11:25;;;;;;;10.13;1.27;;;13.30;50.60;;;;;;5087718;28;20684;-71
2023/05/17 10:14:07;;;;;;;8.87;1.23;;;13.40;51.80;;;;;;5071703;28;20817;-71
2023/05/17 10:16:36;;;;;;;8.37;1.47;;;13.50;50.30;;;;;;5087846;28;20278;-71
2023/05/17 10:19:02;;;;;;;7.67;1.33;;;13.60;50.20;;;;;;5091909;28;20910;-71
2023/05/17 10:21:30;;;;;;;9.37;1.13;;;13.70;50.90;;;;;;5070257;28;20353;-71
2023/05/17 10:23:59;;;;;;;10.30;1.93;;;13.80;50.10;;;;;;5069529;28;20274;-71
2023/05/17 10:26:25;;;;;;;5.30;1.23;;;13.90;50.50;;;;;;5066134;28;20297;-71
2023/05/17 10:28:55;;;;;;;8.97;1.73;;;14.10;50.40;;;;;;5085923;28;20290;-71
2023/05/17 10:31:22;;;;;;;8.13;1.27;;;14.30;49.40;;;;;;5086268;28;20291;-72
2023/05/17 10:33:50;;;;;;;10.07;1.60;;;14.40;49.40;;;;;;5070921;28;20306;-72
2023/05/17 10:36:17;;;;;;;11.83;1.87;;;14.40;47.00;;;;;;5076542;28;20278;-72
2023/05/17 10:38:43;;;;;;;10.20;1.23;;;14.30;47.80;;;;;;5087537;28;20662;-71
2023/05/17 10:41:11;;;;;;;6.83;1.50;;;14.30;49.70;;;;;;5070381;28;20286;-71
2023/05/17 10:43:40;;;;;;;8.27;1.60;;;14.40;48.60;;;;;;5093220;28;20554;-71
2023/05/17 10:46:14;;;;;;;11.70;1.53;;;14.40;49.20;;;;;;5068581;28;20645;-71
2023/05/17 10:48:40;;;;;;;14.43;2.23;;;14.30;49.20;;;;;;5070768;28;20281;-71
2023/05/17 10:51:06;;;;;;;9.70;1.40;;;14.30;49.30;;;;;;5086895;28;20286;-71
2023/05/17 10:53:32;;;;;;;9.10;1.63;;;14.10;50.20;;;;;;5070458;28;20283;-71
2023/05/17 10:55:58;;;;;;;15.00;2.20;;;14.00;50.30;;;;;;5070657;28;20275;-71
2023/05/17 10:58:28;;;;;;;27.20;3.10;;;13.80;51.20;;;;;;5070448;28;20282;-72
2023/05/17 11:00:55;;;;;;;10.00;1.93;;;13.70;51.90;;;;;;5086946;28;20097;-71
2023/05/17 11:03:24;;;;;;;10.43;1.50;;;13.70;52.80;;;;;;5070098;28;20310;-71
2023/05/17 11:06:20;;;;;;;13.07;1.37;;;13.80;53.80;;;;;;5086809;28;20286;-71
2023/05/17 11:09:16;;;;;;;12.87;1.90;;;13.90;53.20;;;;;;5077228;28;20278;-71
2023/05/17 11:12:09;;;;;;;8.88;1.67;;;13.80;52.70;;;;;;5087156;28;20316;-71
2023/05/17 11:14:44;;;;;;;10.03;1.50;;;13.40;53.30;;;;;;5083162;28;20068;-71
2023/05/17 11:17:16;;;;;;;9.45;1.40;;;13.30;54.90;;;;;;5086834;28;20270;-72
2023/05/17 11:19:57;;;;;;;9.73;1.90;;;13.10;56.20;;;;;;5087464;28;20097;-71
2023/05/17 11:22:27;;;;;;;9.87;1.80;;;12.90;57.10;;;;;;5080087;28;20278;-71
2023/05/17 11:24:56;;;;;;;11.23;1.90;;;13.00;57.60;;;;;;5089176;28;20286;-71
2023/05/17 11:27:26;;;;;;;14.40;1.67;;;12.80;58.20;;;;;;5071770;28;20298;-71
2023/05/17 11:29:59;;;;;;;10.87;1.70;;;12.90;59.10;;;;;;5083756;28;20293;-72
2023/05/17 11:32:30;;;;;;;17.00;2.60;;;13.00;58.50;;;;;;5074276;28;20775;-71
2023/05/17 11:34:59;;;;;;;9.23;1.80;;;13.20;60.80;;;;;;5074446;28;20298;-71
2023/05/17 11:37:26;;;;;;;12.30;2.07;;;13.70;59.60;;;;;;5075230;28;20274;-72
2023/05/17 11:40:06;;;;;;;10.63;1.70;;;14.10;59.00;;;;;;5092874;28;20381;-73
2023/05/17 11:42:33;;;;;;;11.23;2.10;;;14.40;56.60;;;;;;5092211;28;20278;-73
2023/05/17 11:45:03;;;;;;;13.60;1.70;;;14.30;55.90;;;;;;5092040;28;20278;-74
2023/05/17 11:47:29;;;;;;;7.30;1.70;;;14.30;56.30;;;;;;5074474;28;20288;-73
2023/05/17 11:49:59;;;;;;;13.77;2.17;;;14.20;56.80;;;;;;5092284;28;20638;-72
2023/05/17 11:52:26;;;;;;;9.70;1.67;;;14.10;55.00;;;;;;5075395;28;20122;-74
2023/05/17 11:54:52;;;;;;;8.73;1.53;;;14.00;56.20;;;;;;5092949;28;20365;-74
2023/05/17 11:57:20;;;;;;;12.53;3.10;;;14.10;56.30;;;;;;5092302;28;20281;-73
2023/05/17 11:59:46;;;;;;;12.27;1.70;;;14.10;56.40;;;;;;5092534;28;20285;-73
2023/05/17 12:02:26;;;;;;;9.60;1.70;;;14.20;56.30;;;;;;5071100;28;20274;-73
2023/05/17 12:04:52;;;;;;;13.57;2.40;;;14.30;57.10;;;;;;5075265;28;20122;-72
2023/05/17 12:07:18;;;;;;;10.47;1.87;;;14.70;56.50;;;;;;5075344;28;20361;-73
2023/05/17 12:09:45;;;;;;;10.13;1.83;;;14.70;54.60;;;;;;5075993;28;20468;-72
2023/05/17 12:12:10;;;;;;;10.03;1.43;;;14.70;54.50;;;;;;5075873;28;20083;-72
2023/05/17 12:14:36;;;;;;;11.67;1.93;;;14.50;55.00;;;;;;5091753;28;20330;-73
2023/05/17 12:17:08;;;;;;;9.10;1.93;;;14.30;54.80;;;;;;5091486;28;20043;-73
2023/05/17 12:19:34;;;;;;;9.83;1.90;;;14.30;54.90;;;;;;5079703;28;20067;-73
2023/05/17 12:22:08;;;;;;;10.90;2.27;;;14.50;54.50;;;;;;5091540;28;20609;-73
2023/05/17 12:24:41;;;;;;;11.00;1.40;;;14.60;53.10;;;;;;5075348;28;20361;-73
2023/05/17 12:27:08;;;;;;;11.03;1.63;;;14.40;51.30;;;;;;5091853;28;20754;-73
2023/05/17 12:29:33;;;;;;;8.83;2.00;;;14.30;52.60;;;;;;5072078;28;20381;-73
2023/05/17 12:32:00;;;;;;;6.47;1.30;;;14.30;53.50;;;;;;5088653;28;20361;-72
2023/05/17 12:34:28;;;;;;;10.70;0.93;;;14.40;51.90;;;;;;5075791;28;20040;-73
2023/05/17 12:36:54;;;;;;;10.13;1.43;;;14.40;52.60;;;;;;5091454;28;20297;-73
2023/05/17 12:39:23;;;;;;;10.07;1.60;;;14.70;53.40;;;;;;5075763;28;20650;-73
2023/05/17 12:41:53;;;;;;;7.00;1.90;;;15.00;52.30;;;;;;5092266;28;20284;-72
2023/05/17 12:44:19;;;;;;;9.50;1.60;;;15.00;49.90;;;;;;5074607;28;20278;-73
2023/05/17 12:46:56;;;;;;;8.47;1.10;;;14.80;49.60;;;;;;5091792;28;20313;-73